createdAt,value
2018-07-20T00:01:40.392Z,23.07
2018-07-20T00:04:09.021Z,23.04
2018-07-20T00:06:37.517Z,23.01
2018-07-20T00:09:08.333Z,22.96
2018-07-20T00:11:37.322Z,22.92
2018-07-20T00:14:05.801Z,22.88
2018-07-20T00:16:34.281Z,22.88
2018-07-20T00:19:03.845Z,22.86
2018-07-20T00:21:32.544Z,22.81
2018-07-20T00:24:01.175Z,22.72
2018-07-20T00:26:29.782Z,22.59
2018-07-20T00:28:58.877Z,22.51
2018-07-20T00:31:27.317Z,22.45
2018-07-20T00:33:55.773Z,22.41
2018-07-20T00:36:24.491Z,22.42
2018-07-20T00:38:53.824Z,22.45
2018-07-20T00:41:23.565Z,22.42
2018-07-20T00:43:52.185Z,22.33
2018-07-20T00:46:21.121Z,22.26
2018-07-20T00:48:50.271Z,22.25
2018-07-20T00:51:18.733Z,22.24
2018-07-20T00:53:47.591Z,22.25
2018-07-20T00:56:16.510Z,22.25
2018-07-20T00:58:44.945Z,22.20
2018-07-20T01:01:13.396Z,22.18
2018-07-20T01:03:42.089Z,22.22
2018-07-20T01:06:10.538Z,22.22
2018-07-20T01:08:39.034Z,22.19
2018-07-20T01:11:08.278Z,22.14
2018-07-20T01:13:37.109Z,22.09
2018-07-20T01:16:05.570Z,22.08
2018-07-20T01:18:34.057Z,22.09
2018-07-20T01:21:03.491Z,22.02
2018-07-20T01:23:31.953Z,21.99
2018-07-20T01:26:00.724Z,21.97
2018-07-20T01:28:29.465Z,21.94
2018-07-20T01:30:57.921Z,21.87
2018-07-20T01:33:26.408Z,21.88
2018-07-20T01:35:55.249Z,21.91
2018-07-20T01:38:23.726Z,21.89
2018-07-20T01:40:52.742Z,21.86
2018-07-20T01:43:21.670Z,21.81
2018-07-20T01:45:50.296Z,21.72
2018-07-20T01:48:18.870Z,21.64
2018-07-20T01:50:47.365Z,21.60
2018-07-20T01:53:16.372Z,21.60
2018-07-20T01:55:45.324Z,21.58
2018-07-20T01:58:13.765Z,21.58
2018-07-20T02:00:42.445Z,21.54
2018-07-20T02:03:11.382Z,21.48
2018-07-20T02:05:39.825Z,21.46
2018-07-20T02:08:08.749Z,21.46
2018-07-20T02:10:37.961Z,21.45
2018-07-20T02:13:06.601Z,21.39
2018-07-20T02:15:35.753Z,21.38
2018-07-20T02:18:04.709Z,21.35
2018-07-20T02:20:33.429Z,21.30
2018-07-20T02:23:02.189Z,21.23
2018-07-20T02:25:31.293Z,21.22
2018-07-20T02:27:59.750Z,21.22
2018-07-20T02:30:28.185Z,21.26
2018-07-20T02:32:57.140Z,21.32
2018-07-20T02:35:25.829Z,21.36
2018-07-20T02:37:54.277Z,21.39
2018-07-20T02:40:23.425Z,21.39
2018-07-20T02:42:52.549Z,21.36
2018-07-20T02:45:21.029Z,21.32
2018-07-20T02:47:49.872Z,21.29
2018-07-20T02:50:18.918Z,21.27
2018-07-20T02:52:47.545Z,21.28
2018-07-20T02:55:16.061Z,21.27
2018-07-20T02:57:44.550Z,21.27
2018-07-20T03:00:13.322Z,21.28
2018-07-20T03:02:41.789Z,21.29
2018-07-20T03:05:10.285Z,21.35
2018-07-20T03:07:38.726Z,21.45
2018-07-20T03:10:07.926Z,21.52
2018-07-20T03:12:36.450Z,19.21
2018-07-20T03:15:05.021Z,21.58
2018-07-20T03:17:33.535Z,21.59
2018-07-20T03:20:02.134Z,21.59
2018-07-20T03:22:30.821Z,21.58
2018-07-20T03:25:00.309Z,21.57
2018-07-20T03:27:29.165Z,21.57
2018-07-20T03:29:57.605Z,21.60
2018-07-20T03:32:26.513Z,21.62
2018-07-20T03:34:55.210Z,21.63
2018-07-20T03:37:23.664Z,21.66
2018-07-20T03:39:53.033Z,21.70
2018-07-20T03:42:21.485Z,21.74
2018-07-20T03:44:50.385Z,21.77
2018-07-20T03:47:19.137Z,21.79
2018-07-20T03:49:47.633Z,21.82
2018-07-20T03:52:16.322Z,21.84
2018-07-20T03:54:44.815Z,21.88
2018-07-20T03:57:13.648Z,21.90
2018-07-20T03:59:42.089Z,21.92
2018-07-20T04:02:10.586Z,21.94
2018-07-20T04:04:39.045Z,21.97
2018-07-20T04:07:07.813Z,22.01
2018-07-20T04:09:36.791Z,22.06
2018-07-20T04:12:05.501Z,22.13
2018-07-20T04:14:34.180Z,22.19
2018-07-20T04:17:03.638Z,22.24
2018-07-20T04:19:32.089Z,22.29
2018-07-20T04:22:00.731Z,22.33
2018-07-20T04:24:29.463Z,22.39
2018-07-20T04:26:57.925Z,22.41
2018-07-20T04:29:26.600Z,22.43
2018-07-20T04:31:55.475Z,22.49
2018-07-20T04:34:24.018Z,22.57
2018-07-20T04:36:52.498Z,22.62
2018-07-20T04:39:21.341Z,22.68
2018-07-20T04:41:50.337Z,22.73
2018-07-20T04:44:18.787Z,22.78
2018-07-20T04:46:47.871Z,22.79
2018-07-20T04:49:16.747Z,22.78
2018-07-20T04:51:45.709Z,22.79
2018-07-20T04:54:14.569Z,22.81
2018-07-20T04:56:42.989Z,22.81
2018-07-20T04:59:11.725Z,22.83
2018-07-20T05:01:40.653Z,22.84
2018-07-20T05:04:09.373Z,22.85
2018-07-20T05:06:38.109Z,22.88
2018-07-20T05:09:09.144Z,22.93
2018-07-20T05:11:37.921Z,22.99
2018-07-20T05:14:06.603Z,23.05
2018-07-20T05:16:35.609Z,23.04
2018-07-20T05:19:04.250Z,23.04
2018-07-20T05:21:33.085Z,23.09
2018-07-20T05:24:02.520Z,23.12
2018-07-20T05:26:31.112Z,23.14
2018-07-20T05:28:59.812Z,23.16
2018-07-20T05:31:28.854Z,23.19
2018-07-20T05:33:57.830Z,23.21
2018-07-20T05:36:26.301Z,23.25
2018-07-20T05:38:55.210Z,23.30
2018-07-20T05:41:24.065Z,23.21
2018-07-20T05:43:53.110Z,23.41
2018-07-20T05:46:22.726Z,23.50
2018-07-20T05:48:51.717Z,23.58
2018-07-20T05:51:20.540Z,23.67
2018-07-20T05:53:49.469Z,23.72
2018-07-20T05:56:18.296Z,23.76
2018-07-20T05:58:46.736Z,23.82
2018-07-20T06:01:15.874Z,23.86
2018-07-20T06:03:44.653Z,23.90
2018-07-20T06:06:13.099Z,23.93
2018-07-20T06:08:41.885Z,23.99
2018-07-20T06:11:10.713Z,24.03
2018-07-20T06:13:39.150Z,24.10
2018-07-20T06:16:08.227Z,24.17
2018-07-20T06:18:37.067Z,24.25
2018-07-20T06:21:06.169Z,24.38
2018-07-20T06:23:35.047Z,24.49
2018-07-20T06:26:03.754Z,24.60
2018-07-20T06:28:32.710Z,24.73
2018-07-20T06:31:01.714Z,24.84
2018-07-20T06:33:30.188Z,24.99
2018-07-20T06:35:58.789Z,25.12
2018-07-20T06:38:27.739Z,25.27
2018-07-20T06:40:56.211Z,25.38
2018-07-20T06:43:24.666Z,25.48
2018-07-20T06:45:54.022Z,25.62
2018-07-20T06:48:22.559Z,25.76
2018-07-20T06:50:51.372Z,25.87
2018-07-20T06:53:20.487Z,25.94
2018-07-20T06:55:49.019Z,25.97
2018-07-20T06:58:17.508Z,26.02
2018-07-20T07:00:46.938Z,26.09
2018-07-20T07:03:15.505Z,26.19
2018-07-20T07:05:44.226Z,26.26
2018-07-20T07:08:13.093Z,26.32
2018-07-20T07:10:41.885Z,26.37
2018-07-20T07:13:10.543Z,26.42
2018-07-20T07:15:39.461Z,26.50
2018-07-20T07:18:08.806Z,26.58
2018-07-20T07:20:37.254Z,26.66
2018-07-20T07:23:06.053Z,26.79
2018-07-20T07:25:34.990Z,26.99
2018-07-20T07:28:03.454Z,27.22
2018-07-20T07:30:31.966Z,27.47
2018-07-20T07:33:01.234Z,27.72
2018-07-20T07:35:30.026Z,28.01
2018-07-20T07:37:58.902Z,28.41
2018-07-20T07:40:27.362Z,29.01
2018-07-20T07:42:56.110Z,30.07
2018-07-20T07:45:24.659Z,30.78
2018-07-20T07:47:53.733Z,31.28
2018-07-20T07:50:22.736Z,31.93
2018-07-20T07:52:51.517Z,32.50
2018-07-20T07:55:19.963Z,32.93
2018-07-20T07:57:48.415Z,33.09
2018-07-20T08:00:17.206Z,33.34
2018-07-20T08:02:46.637Z,33.53
2018-07-20T08:05:15.088Z,32.94
2018-07-20T08:07:44.042Z,34.05
2018-07-20T08:10:12.821Z,34.35
2018-07-20T08:12:41.273Z,34.59
2018-07-20T08:15:10.097Z,34.85
2018-07-20T08:17:38.959Z,35.18
2018-07-20T08:20:07.602Z,35.49
2018-07-20T08:22:36.550Z,35.74
2018-07-20T08:25:05.358Z,35.97
2018-07-20T08:27:34.213Z,36.22
2018-07-20T08:30:03.342Z,36.24
2018-07-20T08:32:31.793Z,36.25
2018-07-20T08:35:00.937Z,36.34
2018-07-20T08:37:30.089Z,36.50
2018-07-20T08:39:58.540Z,36.77
2018-07-20T08:42:27.577Z,36.99
2018-07-20T08:44:56.853Z,36.95
2018-07-20T08:47:25.549Z,36.75
2018-07-20T08:49:54.021Z,36.99
2018-07-20T08:52:24.050Z,37.17
2018-07-20T08:54:53.569Z,37.45
2018-07-20T08:57:22.021Z,37.70
2018-07-20T08:59:50.897Z,37.68
2018-07-20T09:02:19.389Z,37.73
2018-07-20T09:04:47.890Z,37.81
2018-07-20T09:07:16.796Z,37.87
2018-07-20T09:09:45.253Z,37.88
2018-07-20T09:12:13.949Z,37.87
2018-07-20T09:14:42.635Z,37.90
2018-07-20T09:17:11.281Z,38.13
2018-07-20T09:19:39.780Z,38.24
2018-07-20T09:22:08.553Z,38.46
2018-07-20T09:24:37.005Z,38.52
2018-07-20T09:27:05.499Z,38.87
2018-07-20T09:29:34.504Z,39.13
2018-07-20T09:32:03.153Z,38.98
2018-07-20T09:34:31.925Z,38.73
2018-07-20T09:37:01.381Z,38.81
2018-07-20T09:39:30.086Z,39.06
2018-07-20T09:41:58.609Z,39.08
2018-07-20T09:44:27.575Z,38.93
2018-07-20T09:46:56.161Z,38.79
2018-07-20T09:49:24.966Z,38.58
2018-07-20T09:51:53.749Z,37.83
2018-07-20T09:54:22.854Z,37.57
2018-07-20T09:56:51.621Z,37.08
2018-07-20T09:59:21.096Z,37.21
2018-07-20T10:01:49.589Z,37.47
2018-07-20T10:04:18.197Z,37.88
2018-07-20T10:06:47.876Z,38.06
2018-07-20T10:09:16.337Z,37.46
2018-07-20T10:11:44.796Z,38.88
2018-07-20T10:14:14.781Z,39.30
2018-07-20T10:16:43.238Z,39.31
2018-07-20T10:19:11.746Z,39.23
2018-07-20T10:21:40.366Z,39.29
2018-07-20T10:24:08.805Z,39.58
2018-07-20T10:26:37.275Z,39.72
2018-07-20T10:29:06.161Z,39.72
2018-07-20T10:31:34.659Z,39.81
2018-07-20T10:34:03.419Z,39.84
2018-07-20T10:36:32.947Z,39.84
2018-07-20T10:39:01.951Z,39.79
2018-07-20T10:41:30.637Z,40.05
2018-07-20T10:43:59.395Z,39.90
2018-07-20T10:46:27.842Z,39.28
2018-07-20T10:48:56.371Z,39.01
2018-07-20T10:51:25.849Z,38.94
2018-07-20T10:53:54.313Z,38.38
2018-07-20T10:56:23.061Z,37.71
2018-07-20T10:58:52.362Z,37.36
2018-07-20T11:01:21.184Z,37.06
2018-07-20T11:03:49.593Z,36.58
2018-07-20T11:06:19.278Z,35.95
2018-07-20T11:08:48.681Z,35.71
2018-07-20T11:11:17.133Z,36.19
2018-07-20T11:13:45.912Z,36.91
2018-07-20T11:16:14.682Z,37.42
2018-07-20T11:18:43.266Z,37.55
2018-07-20T11:21:11.933Z,37.91
2018-07-20T11:23:40.697Z,38.07
2018-07-20T11:26:09.734Z,37.91
2018-07-20T11:28:38.370Z,38.14
2018-07-20T11:31:06.834Z,37.94
2018-07-20T11:33:35.309Z,37.75
2018-07-20T11:36:04.153Z,37.36
2018-07-20T11:38:32.803Z,36.93
2018-07-20T11:41:01.265Z,36.39
2018-07-20T11:43:30.085Z,35.86
2018-07-20T11:45:58.865Z,35.52
2018-07-20T11:48:27.318Z,35.28
2018-07-20T11:50:56.165Z,35.34
2018-07-20T11:53:24.937Z,35.12
2018-07-20T11:55:53.626Z,34.51
2018-07-20T11:58:22.517Z,34.20
2018-07-20T12:00:51.417Z,34.32
2018-07-20T12:03:19.970Z,34.66
2018-07-20T12:05:48.558Z,35.08
2018-07-20T12:08:17.102Z,34.96
2018-07-20T12:10:45.725Z,35.21
2018-07-20T12:13:14.655Z,35.33
2018-07-20T12:15:43.673Z,35.14
2018-07-20T12:18:12.137Z,35.08
2018-07-20T12:20:41.086Z,34.91
2018-07-20T12:23:09.785Z,34.64
2018-07-20T12:25:38.254Z,34.48
2018-07-20T12:28:06.812Z,34.38
2018-07-20T12:30:35.501Z,34.14
2018-07-20T12:33:04.002Z,33.77
2018-07-20T12:35:33.081Z,33.54
2018-07-20T12:38:02.167Z,33.45
2018-07-20T12:40:30.897Z,33.73
2018-07-20T12:42:59.763Z,34.12
2018-07-20T12:45:28.565Z,34.28
2018-07-20T12:47:57.082Z,34.30
2018-07-20T12:50:25.937Z,34.51
2018-07-20T12:52:54.870Z,34.64
2018-07-20T12:55:24.011Z,34.89
2018-07-20T12:57:53.486Z,35.25
2018-07-20T13:00:22.734Z,35.71
2018-07-20T13:02:51.633Z,36.47
2018-07-20T13:05:20.677Z,36.68
2018-07-20T13:07:49.301Z,37.20
2018-07-20T13:10:17.792Z,37.28
2018-07-20T13:12:53.183Z,37.59
2018-07-20T13:15:21.638Z,37.94
2018-07-20T13:17:50.412Z,38.21
2018-07-20T13:20:19.006Z,38.45
2018-07-20T13:22:47.490Z,38.48
2018-07-20T13:25:16.989Z,38.64
2018-07-20T13:27:46.039Z,38.74
2018-07-20T13:30:14.730Z,38.86
2018-07-20T13:32:43.405Z,38.63
2018-07-20T13:35:12.318Z,38.28
2018-07-20T13:37:41.088Z,38.40
2018-07-20T13:40:09.793Z,38.89
2018-07-20T13:42:39.003Z,39.35
2018-07-20T13:45:08.188Z,39.42
2018-07-20T13:47:36.746Z,39.00
2018-07-20T13:50:06.166Z,38.44
2018-07-20T13:52:34.799Z,38.68
2018-07-20T13:55:03.779Z,38.76
2018-07-20T13:57:32.698Z,38.90
2018-07-20T14:00:01.138Z,39.12
2018-07-20T14:02:29.798Z,38.96
2018-07-20T14:04:58.904Z,38.80
2018-07-20T14:07:27.382Z,38.09
2018-07-20T14:09:56.121Z,37.41
2018-07-20T14:12:24.754Z,37.47
2018-07-20T14:14:54.077Z,37.28
2018-07-20T14:17:23.141Z,37.70
2018-07-20T14:19:51.613Z,38.18
2018-07-20T14:22:20.179Z,38.50
2018-07-20T14:24:48.630Z,38.46
2018-07-20T14:27:17.452Z,38.05
2018-07-20T14:29:46.230Z,38.12
2018-07-20T14:32:14.674Z,38.64
2018-07-20T14:34:43.514Z,39.07
2018-07-20T14:37:13.425Z,39.46
2018-07-20T14:39:41.962Z,39.81
2018-07-20T14:42:10.810Z,39.98
2018-07-20T14:44:39.593Z,40.08
2018-07-20T14:47:08.377Z,39.80
2018-07-20T14:49:36.853Z,39.46
2018-07-20T14:52:05.309Z,38.14
2018-07-20T14:54:33.765Z,37.20
2018-07-20T14:57:02.587Z,36.34
2018-07-20T14:59:31.081Z,35.76
2018-07-20T15:01:59.765Z,35.00
2018-07-20T15:04:28.974Z,34.46
2018-07-20T15:06:57.953Z,34.10
2018-07-20T15:09:26.486Z,33.80
2018-07-20T15:11:55.355Z,33.44
2018-07-20T15:14:24.051Z,33.09
2018-07-20T15:16:52.777Z,32.79
2018-07-20T15:19:21.551Z,32.62
2018-07-20T15:21:50.165Z,32.44
2018-07-20T15:24:18.616Z,32.18
2018-07-20T15:26:47.451Z,32.01
2018-07-20T15:29:16.205Z,31.83
2018-07-20T15:31:44.900Z,31.73
2018-07-20T15:34:13.377Z,31.64
2018-07-20T15:36:42.272Z,31.61
2018-07-20T15:39:11.841Z,31.48
2018-07-20T15:41:40.741Z,31.24
2018-07-20T15:44:09.198Z,31.00
2018-07-20T15:46:37.950Z,30.79
2018-07-20T15:49:06.842Z,30.72
2018-07-20T15:53:35.053Z,30.71
2018-07-20T15:54:04.314Z,30.57
2018-07-20T15:56:33.797Z,30.51
2018-07-20T15:59:02.269Z,30.41
2018-07-20T16:01:30.737Z,30.38
2018-07-20T16:03:59.548Z,30.31
2018-07-20T16:06:28.222Z,30.26
2018-07-20T16:08:56.853Z,30.28
2018-07-20T16:11:25.702Z,30.49
2018-07-20T16:13:54.140Z,31.07
2018-07-20T16:16:23.266Z,31.93
2018-07-20T16:18:52.049Z,32.89
2018-07-20T16:21:20.529Z,33.64
2018-07-20T16:23:48.960Z,34.37
2018-07-20T16:26:17.768Z,34.90
2018-07-20T16:28:46.290Z,35.11
2018-07-20T16:31:14.742Z,34.90
2018-07-20T16:33:43.486Z,34.39
2018-07-20T16:36:12.289Z,33.95
2018-07-20T16:38:40.729Z,33.67
2018-07-20T16:41:09.261Z,33.46
2018-07-20T16:43:38.048Z,33.20
2018-07-20T16:46:06.753Z,32.85
2018-07-20T16:48:35.673Z,32.59
2018-07-20T16:51:04.129Z,32.16
2018-07-20T16:53:32.721Z,31.69
2018-07-20T16:56:01.305Z,31.35
2018-07-20T16:58:29.782Z,31.13
2018-07-20T17:00:58.511Z,30.87
2018-07-20T17:03:27.064Z,30.57
2018-07-20T17:05:55.525Z,30.28
2018-07-20T17:08:24.258Z,30.07
2018-07-20T17:10:53.671Z,29.82
2018-07-20T17:13:23.089Z,29.71
2018-07-20T17:15:52.031Z,29.60
2018-07-20T17:18:20.741Z,29.51
2018-07-20T17:20:49.169Z,29.42
2018-07-20T17:23:18.246Z,29.33
2018-07-20T17:25:47.179Z,29.30
2018-07-20T17:28:16.105Z,29.27
2018-07-20T17:30:44.877Z,29.26
2018-07-20T17:33:14.489Z,29.20
2018-07-20T17:35:42.929Z,29.08
2018-07-20T17:38:11.583Z,28.96
2018-07-20T17:40:40.442Z,28.83
2018-07-20T17:43:09.275Z,28.71
2018-07-20T17:45:37.913Z,28.65
2018-07-20T17:48:06.838Z,28.61
2018-07-20T17:50:35.266Z,28.57
2018-07-20T17:53:11.043Z,28.54
2018-07-20T17:55:39.721Z,28.58
2018-07-20T17:58:08.146Z,28.56
2018-07-20T18:00:37.594Z,28.53
2018-07-20T18:03:06.582Z,28.52
2018-07-20T18:05:35.058Z,28.51
2018-07-20T18:08:04.089Z,28.51
2018-07-20T18:10:32.595Z,28.52
2018-07-20T18:13:01.578Z,28.48
2018-07-20T18:15:30.332Z,28.42
2018-07-20T18:17:58.991Z,28.32
2018-07-20T18:20:29.494Z,28.17
2018-07-20T18:22:58.176Z,28.03
2018-07-20T18:25:26.895Z,27.95
2018-07-20T18:27:58.200Z,27.86
2018-07-20T18:30:27.217Z,27.76
2018-07-20T18:32:57.029Z,27.66
2018-07-20T18:35:25.826Z,27.59
2018-07-20T18:37:54.282Z,27.52
2018-07-20T18:40:24.841Z,27.46
2018-07-20T18:42:53.911Z,27.41
2018-07-20T18:45:23.437Z,27.41
2018-07-20T18:47:52.679Z,27.44
2018-07-20T18:50:21.557Z,27.44
2018-07-20T18:52:50.305Z,27.37
2018-07-20T18:55:19.179Z,27.32
2018-07-20T18:57:47.986Z,27.29
2018-07-20T19:00:16.434Z,27.26
2018-07-20T19:02:45.842Z,27.26
2018-07-20T19:05:14.638Z,27.26
2018-07-20T19:07:43.262Z,27.28
2018-07-20T19:10:12.121Z,27.27
2018-07-20T19:12:40.634Z,27.25
2018-07-20T19:15:09.746Z,27.27
2018-07-20T19:17:40.778Z,27.27
2018-07-20T19:20:10.343Z,27.26
2018-07-20T19:22:38.813Z,27.22
2018-07-20T19:25:08.042Z,27.20
2018-07-20T19:27:36.757Z,27.18
2018-07-20T19:30:05.252Z,27.11
2018-07-20T19:32:34.019Z,27.04
2018-07-20T19:35:03.093Z,26.96
2018-07-20T19:37:31.542Z,26.83
2018-07-20T19:40:00.206Z,26.75
2018-07-20T19:42:28.741Z,26.77
2018-07-20T19:44:57.269Z,26.78
2018-07-20T19:47:26.121Z,26.79
2018-07-20T19:49:54.637Z,26.76
2018-07-20T19:52:24.425Z,26.63
2018-07-20T19:54:53.797Z,26.50
2018-07-20T19:57:22.710Z,26.43
2018-07-20T19:59:51.401Z,26.35
2018-07-20T20:02:20.405Z,26.30
2018-07-20T20:04:49.171Z,26.32
2018-07-20T20:07:17.660Z,26.33
2018-07-20T20:09:46.397Z,26.31
2018-07-20T20:12:15.801Z,26.26
2018-07-20T20:14:44.303Z,26.16
2018-07-20T20:17:13.341Z,26.10
2018-07-20T20:19:42.053Z,26.03
2018-07-20T20:22:10.493Z,25.98
2018-07-20T20:24:39.002Z,25.96
2018-07-20T20:27:07.957Z,25.96
2018-07-20T20:29:36.965Z,25.94
2018-07-20T20:32:05.943Z,25.92
2018-07-20T20:34:34.441Z,25.88
2018-07-20T20:37:03.581Z,25.83
2018-07-20T20:39:32.194Z,25.78
2018-07-20T20:42:00.638Z,25.74
2018-07-20T20:44:29.670Z,25.71
2018-07-20T20:46:58.853Z,25.68
2018-07-20T20:49:27.337Z,25.64
2018-07-20T20:51:55.829Z,25.61
2018-07-20T20:54:24.753Z,25.59
2018-07-20T20:56:53.865Z,25.58
2018-07-20T20:59:22.407Z,25.54
2018-07-20T21:01:51.477Z,25.53
2018-07-20T21:04:20.139Z,25.51
2018-07-20T21:06:48.589Z,25.49
2018-07-20T21:09:17.734Z,25.42
2018-07-20T21:11:46.507Z,25.37
2018-07-20T21:14:14.939Z,25.34
2018-07-20T21:16:43.791Z,25.22
2018-07-20T21:19:12.988Z,25.09
2018-07-20T21:21:41.787Z,24.98
2018-07-20T21:24:10.773Z,24.88
2018-07-20T21:26:39.215Z,24.87
2018-07-20T21:29:07.888Z,24.83
2018-07-20T21:31:36.730Z,24.76
2018-07-20T21:34:05.231Z,24.74
2018-07-20T21:36:33.990Z,24.73
2018-07-20T21:39:02.859Z,24.70
2018-07-20T21:41:31.297Z,24.68
2018-07-20T21:43:59.755Z,24.68
2018-07-20T21:46:28.533Z,24.64
2018-07-20T21:48:57.054Z,24.65
2018-07-20T21:51:25.554Z,24.63
2018-07-20T21:53:54.285Z,24.58
2018-07-20T21:56:23.109Z,24.54
2018-07-20T21:58:51.825Z,24.51
2018-07-20T22:01:20.762Z,24.49
2018-07-20T22:03:49.503Z,24.45
2018-07-20T22:06:17.966Z,24.38
2018-07-20T22:08:47.081Z,24.25
2018-07-20T22:11:15.795Z,24.15
2018-07-20T22:13:44.498Z,24.13
2018-07-20T22:16:13.404Z,24.08
2018-07-20T22:18:41.855Z,24.03
2018-07-20T22:21:10.682Z,23.98
2018-07-20T22:23:39.545Z,23.94
2018-07-20T22:26:08.581Z,23.92
2018-07-20T22:28:37.025Z,23.94
2018-07-20T22:31:05.893Z,23.93
2018-07-20T22:33:34.352Z,23.89
2018-07-20T22:36:03.609Z,23.88
2018-07-20T22:38:32.487Z,23.87
2018-07-20T22:41:01.046Z,23.87
2018-07-20T22:43:29.635Z,23.82
2018-07-20T22:45:58.725Z,23.74
2018-07-20T22:48:27.633Z,23.64
2018-07-20T22:50:56.078Z,23.59
2018-07-20T22:53:25.185Z,23.56
2018-07-20T22:55:53.642Z,23.50
2018-07-20T22:58:22.088Z,23.46
2018-07-20T23:00:50.943Z,23.47
2018-07-20T23:03:19.386Z,23.43
2018-07-20T23:05:48.122Z,23.37
2018-07-20T23:08:17.022Z,23.32
2018-07-20T23:10:45.749Z,23.31
2018-07-20T23:13:14.205Z,23.27
2018-07-20T23:15:43.160Z,23.26
2018-07-20T23:18:11.836Z,23.23
2018-07-20T23:20:40.345Z,23.05
2018-07-20T23:23:09.653Z,23.16
2018-07-20T23:25:39.773Z,23.06
2018-07-20T23:28:08.227Z,22.97
2018-07-20T23:30:37.046Z,22.91
2018-07-20T23:33:06.130Z,22.90
2018-07-20T23:35:34.778Z,22.90
2018-07-20T23:38:03.856Z,22.78
2018-07-20T23:40:32.350Z,22.89
2018-07-20T23:43:01.268Z,22.87
2018-07-20T23:45:30.649Z,22.85
2018-07-20T23:47:59.105Z,22.87
2018-07-20T23:50:28.105Z,22.91
2018-07-20T23:52:59.849Z,22.94
2018-07-20T23:55:28.376Z,22.91
2018-07-20T23:57:57.398Z,22.95
